Time;durP1;ratioP1;P1;durP2;ratioP2;P2;SDS_P1;SDS_P2;PMS_P1;PMS_P2;Temp;Humidity;BMP_temperature;BMP_pressure;BME280_temperature;BME280_humidity;BME280_pressure;Samples;Min_cycle;Max_cycle;Signal;HPM_P1;HPM_P2
2023/08/05 00:01:00;;;;;;;7.90;2.60;;;16.60;99.90;;;;;;5009644;28;20471;-68
2023/08/05 00:03:25;;;;;;;9.50;2.90;;;16.50;99.90;;;;;;5009177;28;20393;-68
2023/08/05 00:05:51;;;;;;;10.20;2.90;;;16.50;99.90;;;;;;5027329;28;20801;-68
2023/08/05 00:08:16;;;;;;;7.57;2.80;;;16.60;99.90;;;;;;5010408;28;20417;-68
2023/08/05 00:10:43;;;;;;;6.90;2.90;;;16.60;99.90;;;;;;5010233;28;20404;-68
2023/08/05 00:13:09;;;;;;;10.50;3.10;;;16.60;99.90;;;;;;4950171;28;1718222;-69
2023/08/05 00:15:34;;;;;;;8.30;2.90;;;16.60;99.90;;;;;;5010429;28;20487;-68
2023/08/05 00:18:00;;;;;;;11.95;3.65;;;16.60;99.90;;;;;;5010054;28;20804;-68
2023/08/05 00:20:26;;;;;;;10.38;2.97;;;16.60;99.90;;;;;;5010980;28;20396;-68
2023/08/05 00:22:51;;;;;;;10.00;3.27;;;16.50;99.90;;;;;;5011298;28;20397;-68
2023/08/05 00:25:17;;;;;;;7.83;3.10;;;16.50;99.90;;;;;;5010101;28;20404;-68
2023/08/05 00:27:42;;;;;;;8.53;2.87;;;16.50;99.90;;;;;;5011000;28;20397;-68
2023/08/05 00:30:08;;;;;;;8.87;3.30;;;16.50;99.90;;;;;;5009443;28;20770;-68
2023/08/05 00:32:36;;;;;;;8.73;2.80;;;16.60;99.90;;;;;;5010849;28;20396;-68
2023/08/05 00:35:03;;;;;;;6.72;2.65;;;16.60;99.90;;;;;;4993295;28;20463;-69
2023/08/05 00:37:28;;;;;;;7.40;2.53;;;16.60;99.90;;;;;;5009699;28;20579;-68
2023/08/05 00:39:54;;;;;;;7.90;2.77;;;16.70;99.90;;;;;;5027811;28;20494;-68
2023/08/05 00:42:19;;;;;;;9.50;2.80;;;16.70;99.90;;;;;;5021265;28;20461;-68
2023/08/05 00:44:45;;;;;;;7.97;3.40;;;16.70;99.90;;;;;;5010308;28;20480;-68
2023/08/05 00:47:11;;;;;;;12.05;3.25;;;16.70;99.90;;;;;;5010706;28;20384;-68
2023/08/05 00:49:37;;;;;;;7.22;2.40;;;16.70;99.90;;;;;;5009696;28;20477;-68
2023/08/05 00:52:05;;;;;;;7.43;2.73;;;16.70;99.90;;;;;;5010576;28;20396;-68
2023/08/05 00:54:31;;;;;;;7.95;3.38;;;16.60;99.90;;;;;;5010389;28;20455;-68
2023/08/05 00:56:56;;;;;;;8.50;3.47;;;16.60;99.90;;;;;;5010591;28;20881;-68
2023/08/05 00:59:22;;;;;;;8.00;2.90;;;16.50;99.90;;;;;;5009794;28;20928;-68
2023/08/05 01:01:47;;;;;;;8.82;2.75;;;16.50;99.90;;;;;;5009515;28;20392;-68
2023/08/05 01:04:13;;;;;;;9.77;2.85;;;16.50;99.90;;;;;;5010453;28;20492;-69
2023/08/05 01:06:40;;;;;;;7.23;2.73;;;16.40;99.90;;;;;;5009821;28;20801;-69
2023/08/05 01:09:06;;;;;;;7.50;2.90;;;16.40;99.90;;;;;;5009595;28;20393;-68
2023/08/05 01:11:32;;;;;;;7.23;2.53;;;16.40;99.90;;;;;;5009272;28;20385;-68
2023/08/05 01:13:57;;;;;;;5.85;2.20;;;16.30;99.90;;;;;;5010528;28;20417;-68
2023/08/05 01:16:23;;;;;;;6.80;3.10;;;16.30;99.90;;;;;;5009369;28;20420;-68
2023/08/05 01:18:48;;;;;;;10.60;3.10;;;16.20;99.90;;;;;;5009193;28;20400;-68
2023/08/05 01:21:24;;;;;;;8.17;2.80;;;16.20;99.90;;;;;;5009975;28;20800;-68
2023/08/05 01:24:08;;;;;;;8.60;2.90;;;16.30;99.90;;;;;;5010645;28;20869;-68
2023/08/05 01:26:34;;;;;;;8.70;3.00;;;16.20;99.90;;;;;;5009878;28;21299;-68
2023/08/05 01:29:00;;;;;;;7.80;3.05;;;16.30;99.90;;;;;;5012409;28;20389;-68
2023/08/05 01:31:28;;;;;;;10.00;3.17;;;16.30;99.90;;;;;;5029179;28;20385;-68
2023/08/05 01:33:53;;;;;;;11.60;3.65;;;16.40;99.90;;;;;;5029587;28;20492;-68
2023/08/05 01:36:22;;;;;;;5.60;2.20;;;16.40;99.90;;;;;;5029128;28;20873;-68
2023/08/05 01:38:47;;;;;;;7.43;2.40;;;16.50;99.90;;;;;;5028588;28;20406;-68
2023/08/05 01:41:14;;;;;;;7.20;2.50;;;16.40;99.90;;;;;;5029537;28;20383;-69
2023/08/05 01:43:40;;;;;;;6.85;3.08;;;16.50;99.90;;;;;;5011077;28;20514;-68
2023/08/05 01:46:05;;;;;;;8.55;2.75;;;16.50;99.90;;;;;;5009644;28;20483;-68
2023/08/05 01:48:31;;;;;;;7.50;2.50;;;16.50;99.90;;;;;;5008461;28;20512;-67
2023/08/05 01:50:56;;;;;;;7.57;2.43;;;16.60;87.00;;;;;;5009151;28;20405;-68
2023/08/05 01:53:22;;;;;;;11.60;3.40;;;16.60;94.10;;;;;;5009222;28;20436;-68
2023/08/05 01:55:47;;;;;;;6.73;2.40;;;16.60;83.30;;;;;;5008524;28;20395;-68
2023/08/05 01:58:13;;;;;;;7.40;2.80;;;16.60;33.50;;;;;;5009269;28;20916;-68
2023/08/05 02:00:39;;;;;;;8.77;3.45;;;16.60;46.60;;;;;;5009497;28;20469;-68
2023/08/05 02:03:04;;;;;;;7.68;2.72;;;16.50;79.90;;;;;;5010847;28;20401;-68
2023/08/05 02:05:30;;;;;;;8.57;3.63;;;16.50;76.10;;;;;;5009546;28;20389;-68
2023/08/05 02:07:55;;;;;;;8.57;2.90;;;16.50;57.60;;;;;;5009022;28;20395;-68
2023/08/05 02:10:21;;;;;;;10.83;3.00;;;16.50;41.40;;;;;;5009199;28;20389;-68
2023/08/05 02:12:47;;;;;;;9.80;3.00;;;16.50;44.10;;;;;;5009977;28;20400;-68
2023/08/05 02:15:13;;;;;;;8.48;3.17;;;16.40;66.50;;;;;;4991396;28;20421;-68
2023/08/05 02:17:38;;;;;;;7.43;3.05;;;16.50;49.20;;;;;;5008349;28;20401;-68
2023/08/05 02:20:05;;;;;;;7.40;3.20;;;16.40;41.00;;;;;;4991145;28;20393;-68
2023/08/05 02:22:30;;;;;;;7.28;2.78;;;16.30;81.20;;;;;;5008408;28;20756;-68
2023/08/05 02:24:56;;;;;;;7.22;2.70;;;16.30;91.00;;;;;;4991127;28;20401;-68
2023/08/05 02:27:21;;;;;;;7.28;2.75;;;16.40;76.40;;;;;;5008534;28;20484;-69
2023/08/05 02:29:47;;;;;;;7.53;2.60;;;16.40;83.40;;;;;;5008448;28;20396;-69
2023/08/05 02:32:12;;;;;;;8.83;2.83;;;16.40;46.20;;;;;;5009005;28;20865;-68
2023/08/05 02:34:38;;;;;;;9.70;3.53;;;16.40;45.40;;;;;;5008365;28;20981;-68
2023/08/05 02:37:04;;;;;;;7.93;3.00;;;16.40;39.80;;;;;;5013468;28;20393;-68
2023/08/05 02:39:29;;;;;;;7.30;2.90;;;16.30;45.60;;;;;;5031813;28;20391;-68
2023/08/05 02:41:55;;;;;;;9.25;3.13;;;16.30;39.50;;;;;;5026944;28;20392;-68
2023/08/05 02:44:20;;;;;;;10.07;3.10;;;16.20;60.80;;;;;;5011840;28;20424;-69
2023/08/05 02:46:46;;;;;;;8.70;3.70;;;16.20;74.30;;;;;;5011939;28;20389;-69
2023/08/05 02:49:11;;;;;;;8.80;2.70;;;16.20;53.70;;;;;;5012507;28;20885;-68
2023/08/05 02:51:37;;;;;;;9.77;2.80;;;16.00;97.40;;;;;;5011659;28;20411;-68
2023/08/05 02:54:03;;;;;;;7.28;2.78;;;16.00;99.90;;;;;;5012484;28;20962;-68
2023/08/05 02:56:29;;;;;;;7.95;3.00;;;15.90;99.90;;;;;;5011624;28;20396;-68
2023/08/05 02:58:55;;;;;;;10.13;3.13;;;15.70;99.90;;;;;;5011768;28;20393;-68
2023/08/05 03:01:20;;;;;;;9.63;3.22;;;15.60;99.90;;;;;;5011425;28;20400;-68
2023/08/05 03:03:46;;;;;;;9.88;3.13;;;15.60;99.90;;;;;;5011850;28;20889;-68
2023/08/05 03:06:12;;;;;;;9.80;3.10;;;15.60;99.90;;;;;;5011902;28;20385;-68
2023/08/05 03:08:37;;;;;;;10.10;2.70;;;15.60;99.90;;;;;;5011838;28;20882;-68
2023/08/05 03:11:04;;;;;;;7.43;3.20;;;15.60;99.90;;;;;;5011857;28;20794;-68
2023/08/05 03:13:29;;;;;;;9.30;3.50;;;15.70;99.90;;;;;;5011383;28;20424;-69
2023/08/05 03:15:55;;;;;;;10.33;3.70;;;15.70;99.90;;;;;;5010713;28;20731;-68
2023/08/05 03:18:21;;;;;;;9.50;2.60;;;15.70;99.90;;;;;;5011318;28;20459;-68
2023/08/05 03:20:48;;;;;;;7.73;3.03;;;15.70;99.90;;;;;;5012463;28;20419;-68
2023/08/05 03:23:14;;;;;;;8.23;3.00;;;15.70;99.90;;;;;;5023696;28;20436;-68
2023/08/05 03:25:39;;;;;;;7.75;2.88;;;15.70;99.90;;;;;;5012359;28;20424;-68
2023/08/05 03:28:05;;;;;;;8.67;3.80;;;15.70;99.90;;;;;;5012386;28;20465;-68
2023/08/05 03:30:31;;;;;;;12.10;4.10;;;15.80;99.90;;;;;;5010940;28;20735;-69
2023/08/05 03:32:56;;;;;;;7.60;3.15;;;15.90;99.90;;;;;;5011283;28;20388;-68
2023/08/05 03:35:22;;;;;;;9.27;3.23;;;16.00;99.90;;;;;;5010882;28;20446;-69
2023/08/05 03:37:47;;;;;;;9.80;2.80;;;15.90;99.90;;;;;;5011139;28;20443;-68
2023/08/05 03:40:13;;;;;;;10.50;3.78;;;15.90;99.90;;;;;;5011328;28;20885;-68
2023/08/05 03:42:40;;;;;;;10.68;3.40;;;16.00;99.90;;;;;;5012209;28;20385;-68
2023/08/05 03:45:06;;;;;;;8.97;3.40;;;16.10;99.90;;;;;;5011384;28;20393;-68
2023/08/05 03:47:33;;;;;;;8.23;3.28;;;16.10;99.90;;;;;;5010920;28;20889;-68
2023/08/05 03:49:59;;;;;;;8.35;3.20;;;16.10;99.90;;;;;;5011454;28;20389;-69
2023/08/05 03:52:26;;;;;;;8.07;2.90;;;16.20;99.10;;;;;;5011252;28;20397;-68
2023/08/05 03:54:52;;;;;;;7.68;3.03;;;16.10;79.60;;;;;;5011787;28;20534;-68
2023/08/05 03:57:17;;;;;;;10.80;3.65;;;16.10;90.80;;;;;;5011259;28;20504;-68
2023/08/05 03:59:46;;;;;;;12.23;4.03;;;16.10;94.50;;;;;;5011403;28;20397;-68
2023/08/05 04:02:12;;;;;;;9.10;3.35;;;16.10;71.40;;;;;;5012631;28;20389;-68
2023/08/05 04:04:38;;;;;;;8.37;3.40;;;16.00;98.20;;;;;;5012230;28;20397;-68
2023/08/05 04:07:04;;;;;;;7.70;3.00;;;16.00;99.90;;;;;;5011111;28;20435;-68
2023/08/05 04:09:31;;;;;;;10.95;3.80;;;16.00;99.90;;;;;;5011336;28;20408;-68
2023/08/05 04:11:58;;;;;;;8.27;3.40;;;16.00;99.90;;;;;;5012795;28;20439;-68
2023/08/05 04:14:24;;;;;;;8.88;3.28;;;16.00;97.50;;;;;;5011942;28;20925;-68
2023/08/05 04:16:51;;;;;;;8.03;3.60;;;15.90;98.40;;;;;;5010672;28;20450;-68
2023/08/05 04:19:18;;;;;;;10.32;2.95;;;15.90;99.90;;;;;;5010848;28;20471;-68
2023/08/05 04:21:47;;;;;;;7.85;3.60;;;15.90;99.90;;;;;;5010581;28;20381;-68
2023/08/05 04:24:14;;;;;;;9.13;3.80;;;15.80;99.90;;;;;;5011439;28;20834;-68
2023/08/05 04:26:40;;;;;;;9.60;3.40;;;15.80;99.90;;;;;;5010975;28;20424;-68
2023/08/05 04:29:06;;;;;;;7.20;3.17;;;15.70;99.90;;;;;;4993202;28;20754;-68
2023/08/05 04:31:32;;;;;;;8.45;3.40;;;15.70;99.90;;;;;;5010283;28;20397;-68
2023/08/05 04:33:57;;;;;;;8.33;3.50;;;15.70;99.90;;;;;;5006799;28;20430;-68
2023/08/05 04:36:22;;;;;;;9.95;3.58;;;15.70;99.90;;;;;;4998112;28;20404;-68
2023/08/05 04:38:49;;;;;;;7.90;2.92;;;15.70;99.90;;;;;;5010445;28;20409;-68
2023/08/05 04:41:15;;;;;;;8.35;3.17;;;15.70;99.90;;;;;;5010654;28;20388;-68
2023/08/05 04:43:40;;;;;;;8.23;3.30;;;15.70;99.90;;;;;;5009216;28;20427;-68
2023/08/05 04:46:06;;;;;;;8.18;3.58;;;15.70;99.90;;;;;;5009995;28;20404;-68
2023/08/05 04:48:31;;;;;;;7.80;3.20;;;15.70;99.90;;;;;;5010228;28;20399;-68
2023/08/05 04:50:57;;;;;;;8.33;2.83;;;15.70;99.90;;;;;;5009642;28;20408;-68
2023/08/05 04:53:22;;;;;;;9.00;3.93;;;15.70;99.90;;;;;;5014323;28;20454;-68
2023/08/05 04:55:48;;;;;;;8.67;3.40;;;15.70;99.90;;;;;;5030031;28;20402;-68
2023/08/05 04:58:13;;;;;;;9.45;3.38;;;15.80;99.90;;;;;;5029314;28;20895;-68
2023/08/05 05:00:39;;;;;;;7.82;3.22;;;15.80;99.90;;;;;;5029751;28;20407;-69
2023/08/05 05:03:06;;;;;;;10.60;3.80;;;15.80;99.90;;;;;;5030325;28;20395;-68
2023/08/05 05:05:33;;;;;;;8.82;3.22;;;15.80;99.90;;;;;;5024530;28;20396;-68
2023/08/05 05:07:59;;;;;;;8.05;3.40;;;15.80;99.90;;;;;;5009854;28;20972;-68
2023/08/05 05:10:25;;;;;;;10.45;3.30;;;15.80;99.90;;;;;;5018967;28;20394;-73
2023/08/05 05:12:51;;;;;;;11.00;3.40;;;15.80;99.90;;;;;;5000140;28;20428;-73
2023/08/05 05:15:16;;;;;;;8.52;3.47;;;15.90;99.90;;;;;;5013150;28;20456;-73
2023/08/05 05:17:42;;;;;;;8.30;3.17;;;16.00;99.90;;;;;;5012262;28;20400;-73
2023/08/05 05:20:08;;;;;;;7.68;3.30;;;16.00;99.90;;;;;;5013573;28;20384;-73
2023/08/05 05:22:35;;;;;;;11.30;3.90;;;16.10;90.50;;;;;;5012263;28;20427;-74
2023/08/05 05:25:01;;;;;;;7.55;3.65;;;16.00;99.90;;;;;;5012428;28;20465;-74
2023/08/05 05:27:26;;;;;;;9.25;3.17;;;16.10;99.30;;;;;;5011468;28;20447;-74
2023/08/05 05:29:52;;;;;;;8.55;2.90;;;16.10;80.00;;;;;;5011440;28;20405;-74
2023/08/05 05:32:18;;;;;;;8.40;3.60;;;16.00;94.50;;;;;;5010937;28;20443;-74
2023/08/05 05:34:43;;;;;;;8.93;3.90;;;16.00;96.10;;;;;;5011143;28;20897;-74
2023/08/05 05:37:09;;;;;;;10.05;3.40;;;16.00;80.50;;;;;;5010307;28;20432;-74
2023/08/05 05:39:35;;;;;;;8.00;3.50;;;16.00;92.90;;;;;;5009184;28;20436;-69
2023/08/05 05:42:00;;;;;;;7.20;2.63;;;16.10;55.90;;;;;;5007787;28;20396;-68
2023/08/05 05:44:29;;;;;;;9.10;3.67;;;16.10;82.00;;;;;;5008228;28;20392;-68
2023/08/05 05:46:55;;;;;;;9.93;3.28;;;16.10;73.80;;;;;;5007349;28;20397;-68
2023/08/05 05:49:21;;;;;;;10.70;3.40;;;16.10;67.40;;;;;;5009923;28;20404;-68
2023/08/05 05:51:48;;;;;;;8.40;3.30;;;16.00;61.20;;;;;;5008567;28;20400;-68
2023/08/05 05:54:14;;;;;;;7.43;2.85;;;16.10;54.30;;;;;;5009280;28;20428;-68
2023/08/05 05:56:40;;;;;;;7.55;2.95;;;16.10;44.70;;;;;;5009737;28;20389;-68
2023/08/05 05:59:05;;;;;;;8.85;3.40;;;16.20;41.00;;;;;;5007808;28;20393;-68
2023/08/05 06:01:31;;;;;;;12.80;3.73;;;16.30;27.90;;;;;;5015032;28;20907;-68
2023/08/05 06:03:57;;;;;;;9.68;3.63;;;16.40;7.90;;;;;;5019820;28;20440;-69
2023/08/05 06:06:22;;;;;;;7.95;2.63;;;16.50;1.00;;;;;;5005536;28;20464;-68
2023/08/05 06:08:48;;;;;;;7.50;2.97;;;16.60;1.00;;;;;;5008013;28;20417;-69
2023/08/05 06:11:14;;;;;;;8.67;2.90;;;16.50;1.00;;;;;;5008814;28;21134;-69
2023/08/05 06:13:39;;;;;;;7.68;2.95;;;16.50;1.00;;;;;;5014696;28;20456;-68
2023/08/05 06:16:05;;;;;;;9.15;3.70;;;16.50;1.00;;;;;;5013133;28;20472;-69
2023/08/05 06:18:31;;;;;;;8.20;2.90;;;16.70;1.00;;;;;;5012302;28;20427;-68
2023/08/05 06:20:56;;;;;;;9.68;3.30;;;16.80;1.00;;;;;;5011578;28;20440;-68
2023/08/05 06:23:22;;;;;;;10.23;3.33;;;17.00;1.00;;;;;;5011077;28;20734;-69
2023/08/05 06:25:47;;;;;;;8.63;2.97;;;17.00;1.00;;;;;;5011287;28;20420;-68
2023/08/05 06:28:13;;;;;;;8.83;3.60;;;17.00;1.00;;;;;;5011950;28;20857;-69
2023/08/05 06:30:46;;;;;;;8.30;2.90;;;17.20;1.00;;;;;;5012074;28;20625;-69
2023/08/05 06:33:12;;;;;;;9.45;2.88;;;17.40;1.00;;;;;;5012514;28;20389;-68
2023/08/05 06:35:38;;;;;;;8.45;2.85;;;17.40;1.00;;;;;;5020096;28;20457;-69
2023/08/05 06:38:03;;;;;;;8.65;3.65;;;17.40;1.00;;;;;;5032134;28;20395;-69
2023/08/05 06:40:29;;;;;;;9.30;3.20;;;17.50;1.00;;;;;;5017042;28;20389;-69
2023/08/05 06:42:56;;;;;;;7.43;2.50;;;17.70;1.00;;;;;;5014041;28;20393;-69
2023/08/05 06:45:21;;;;;;;9.57;3.78;;;17.70;1.00;;;;;;5014106;28;20416;-69
2023/08/05 06:47:47;;;;;;;10.68;3.10;;;17.90;1.00;;;;;;5013841;28;20420;-69
2023/08/05 06:50:12;;;;;;;8.77;3.30;;;18.20;99.90;;;;;;5015188;28;20389;-69
2023/08/05 06:52:38;;;;;;;10.93;3.77;;;18.30;99.90;;;;;;5014199;28;20447;-68
2023/08/05 06:55:04;;;;;;;8.20;3.20;;;18.50;99.90;;;;;;5014461;28;20459;-69
2023/08/05 06:57:32;;;;;;;7.78;3.15;;;18.80;99.90;;;;;;5014055;28;20920;-68
2023/08/05 06:59:58;;;;;;;7.78;2.70;;;19.20;1.00;;;;;;5014021;28;20385;-69
2023/08/05 07:02:25;;;;;;;8.85;3.45;;;19.20;1.00;;;;;;5013613;28;20422;-69
2023/08/05 07:04:52;;;;;;;8.13;3.05;;;19.50;1.00;;;;;;5014215;28;20400;-69
2023/08/05 07:07:17;;;;;;;7.28;3.10;;;19.60;91.50;;;;;;5012491;28;20385;-69
2023/08/05 07:09:43;;;;;;;8.77;3.30;;;19.80;99.90;;;;;;5022614;28;20888;-68
2023/08/05 07:12:08;;;;;;;8.60;2.50;;;21.20;99.90;;;;;;5033654;28;20911;-69
2023/08/05 07:14:34;;;;;;;7.93;2.80;;;21.30;99.90;;;;;;5018012;28;20420;-69
2023/08/05 07:17:01;;;;;;;11.30;3.10;;;22.40;99.90;;;;;;5015147;28;20470;-75
2023/08/05 07:19:26;;;;;;;6.73;2.20;;;23.30;1.00;;;;;;5015365;28;20465;-74
2023/08/05 07:21:57;;;;;;;7.97;2.80;;;22.80;1.00;;;;;;5018853;28;20504;-74
2023/08/05 07:24:22;;;;;;;7.30;2.78;;;22.00;8.40;;;;;;5014629;28;20772;-76
2023/08/05 07:26:48;;;;;;;8.00;2.90;;;21.50;99.90;;;;;;5014548;28;20405;-76
2023/08/05 07:29:13;;;;;;;8.00;3.03;;;21.20;99.90;;;;;;5014120;28;20420;-75
2023/08/05 07:31:39;;;;;;;15.30;3.13;;;20.80;99.90;;;;;;5012866;28;20395;-75
2023/08/05 07:34:05;;;;;;;7.75;2.72;;;20.90;1.00;;;;;;5014270;28;20997;-75
2023/08/05 07:36:33;;;;;;;7.57;2.58;;;21.10;1.00;;;;;;4995335;28;20406;-75
2023/08/05 07:39:02;;;;;;;7.60;2.72;;;21.20;99.90;;;;;;4993258;28;20399;-74
2023/08/05 07:41:27;;;;;;;10.05;3.03;;;21.00;99.90;;;;;;4994215;28;20806;-74
2023/08/05 07:43:58;;;;;;;9.30;3.00;;;20.50;99.90;;;;;;5024400;28;20403;-74
2023/08/05 07:46:30;;;;;;;8.93;2.70;;;20.90;99.90;;;;;;5026525;28;20491;-75
2023/08/05 07:48:57;;;;;;;8.13;3.28;;;20.90;15.30;;;;;;5007517;28;20788;-75
2023/08/05 07:51:23;;;;;;;8.00;3.00;;;21.20;1.00;;;;;;5002673;28;20480;-75
2023/08/05 07:53:50;;;;;;;7.53;2.90;;;21.50;1.00;;;;;;4996694;28;20454;-76
2023/08/05 07:56:16;;;;;;;8.00;3.35;;;21.80;99.90;;;;;;4994709;28;20405;-77
2023/08/05 07:58:45;;;;;;;7.90;2.80;;;21.90;99.90;;;;;;5007322;28;20941;-75
2023/08/05 08:01:13;;;;;;;9.02;2.70;;;22.20;99.90;;;;;;5009108;28;20392;-74
2023/08/05 08:03:42;;;;;;;9.73;2.47;;;22.00;99.90;;;;;;5006565;28;20431;-74
2023/08/05 08:06:14;;;;;;;7.67;2.60;;;22.00;99.90;;;;;;5012844;28;20424;-74
2023/08/05 08:08:39;;;;;;;7.90;3.10;;;22.50;99.90;;;;;;5009447;28;20426;-73
2023/08/05 08:11:05;;;;;;;7.67;2.40;;;23.00;46.10;;;;;;4995788;28;20449;-74
2023/08/05 08:13:30;;;;;;;8.20;2.80;;;23.60;1.00;;;;;;4998075;28;20436;-74
2023/08/05 08:15:56;;;;;;;7.27;2.67;;;24.10;1.00;;;;;;5011286;28;20404;-73
2023/08/05 08:18:21;;;;;;;7.80;2.10;;;25.00;99.90;;;;;;5012324;28;20882;-74
2023/08/05 08:20:51;;;;;;;9.20;3.00;;;25.40;1.00;;;;;;5012508;28;20475;-73
2023/08/05 08:23:17;;;;;;;7.63;2.67;;;24.60;1.00;;;;;;5012458;28;20889;-74
2023/08/05 08:25:43;;;;;;;8.50;3.20;;;;;;;;;;5011321;28;20388;-74
2023/08/05 08:28:17;;;;;;;8.43;2.40;;;25.00;1.00;;;;;;5016371;28;20461;-75
2023/08/05 08:30:54;;;;;;;7.90;2.70;;;26.50;1.00;;;;;;4980294;28;20412;-75
2023/08/05 08:33:21;;;;;;;6.32;2.50;;;28.00;1.00;;;;;;5010942;28;20670;-75
2023/08/05 08:35:47;;;;;;;8.40;2.50;;;29.40;99.90;;;;;;5011390;28;20427;-75
2023/08/05 08:38:12;;;;;;;6.50;1.90;;;29.70;99.90;;;;;;5011840;28;20404;-75
2023/08/05 08:40:38;;;;;;;6.47;1.93;;;29.90;99.90;;;;;;4994083;28;20404;-74
2023/08/05 08:43:03;;;;;;;6.95;1.50;;;29.80;99.90;;;;;;4994389;28;20941;-75
2023/08/05 08:45:33;;;;;;;7.50;2.20;;;30.00;99.90;;;;;;5012175;28;20459;-75
2023/08/05 08:48:00;;;;;;;6.20;2.05;;;29.60;99.90;;;;;;5011995;28;20385;-74
2023/08/05 08:50:26;;;;;;;6.88;2.25;;;30.00;99.90;;;;;;5012266;28;20961;-75
2023/08/05 08:52:54;;;;;;;5.93;1.52;;;30.10;99.90;;;;;;5031372;28;20373;-75
2023/08/05 08:55:21;;;;;;;5.85;1.80;;;29.30;99.90;;;;;;5014912;28;20441;-75
2023/08/05 08:57:47;;;;;;;7.20;2.20;;;28.90;99.90;;;;;;5016936;28;20389;-75
2023/08/05 09:00:13;;;;;;;6.72;2.38;;;28.40;99.90;;;;;;5017159;28;20388;-75
2023/08/05 09:02:39;;;;;;;6.13;1.83;;;28.70;99.90;;;;;;5014609;28;20392;-75
2023/08/05 09:05:05;;;;;;;6.30;1.98;;;29.90;99.90;;;;;;5015261;28;20393;-75
2023/08/05 09:07:32;;;;;;;6.60;1.70;;;31.70;99.90;;;;;;5011016;28;20769;-76
2023/08/05 09:10:03;;;;;;;7.40;2.20;;;32.30;99.90;;;;;;5001294;28;20408;-76
2023/08/05 09:12:31;;;;;;;7.47;1.58;;;33.00;99.90;;;;;;5016716;28;20414;-74
2023/08/05 09:14:58;;;;;;;5.95;1.70;;;31.80;99.90;;;;;;5002350;28;20426;-74
2023/08/05 09:17:24;;;;;;;6.43;1.63;;;30.80;99.90;;;;;;5020636;28;20719;-74
2023/08/05 09:19:50;;;;;;;8.00;1.40;;;29.40;99.90;;;;;;5021260;28;20420;-74
2023/08/05 09:22:15;;;;;;;6.73;1.60;;;28.40;99.90;;;;;;5020960;28;20459;-74
2023/08/05 09:24:42;;;;;;;6.03;1.43;;;27.70;99.90;;;;;;5019710;28;20396;-74
2023/08/05 09:27:07;;;;;;;7.20;1.80;;;27.60;99.90;;;;;;4997453;28;20394;-74
2023/08/05 09:29:36;;;;;;;7.35;2.30;;;27.90;99.90;;;;;;4997168;28;20410;-74
2023/08/05 09:32:03;;;;;;;9.73;2.10;;;28.50;99.90;;;;;;4995962;28;20522;-74
2023/08/05 09:34:35;;;;;;;7.22;2.40;;;30.70;99.90;;;;;;4996462;28;20468;-75
2023/08/05 09:37:02;;;;;;;7.80;2.20;;;31.30;99.90;;;;;;4995364;28;20736;-74
2023/08/05 09:39:45;;;;;;;10.20;3.17;;;32.10;99.90;;;;;;4996090;28;20445;-76
2023/08/05 09:42:24;;;;;;;6.50;1.80;;;30.00;99.90;;;;;;4983624;28;20421;-75
2023/08/05 09:44:58;;;;;;;7.20;1.90;;;29.20;99.90;;;;;;5002897;28;20427;-75
2023/08/05 09:47:30;;;;;;;6.85;2.10;;;29.20;99.90;;;;;;5014990;28;20562;-76
2023/08/05 09:49:58;;;;;;;6.15;1.55;;;29.80;99.90;;;;;;5010176;28;20956;-75
2023/08/05 09:52:25;;;;;;;5.90;1.70;;;30.10;99.90;;;;;;4994434;28;20412;-75
2023/08/05 09:55:03;;;;;;;5.70;1.60;;;30.40;99.90;;;;;;5012889;28;20482;-75
2023/08/05 09:57:33;;;;;;;9.48;2.40;;;30.30;99.90;;;;;;4994299;28;20400;-75
2023/08/05 09:59:59;;;;;;;7.40;1.70;;;30.20;99.90;;;;;;5012304;28;20535;-75
2023/08/05 10:02:26;;;;;;;7.72;1.80;;;29.20;99.90;;;;;;5007979;28;20802;-75
2023/08/05 10:04:53;;;;;;;5.80;1.70;;;28.20;99.90;;;;;;5011944;28;20401;-76
2023/08/05 10:07:23;;;;;;;5.90;1.67;;;28.60;99.90;;;;;;5011789;28;20407;-76
2023/08/05 10:09:50;;;;;;;5.93;1.35;;;29.60;99.90;;;;;;5011626;28;20475;-76
2023/08/05 10:12:23;;;;;;;6.97;2.00;;;30.50;99.90;;;;;;4999460;28;20449;-76
2023/08/05 10:14:49;;;;;;;6.22;1.70;;;30.70;99.90;;;;;;5012301;28;20421;-76
2023/08/05 10:17:16;;;;;;;6.75;2.20;;;30.40;99.90;;;;;;5012633;28;20416;-75
2023/08/05 10:19:47;;;;;;;7.93;1.85;;;29.50;99.90;;;;;;5012780;28;20420;-76
2023/08/05 10:22:13;;;;;;;9.20;2.60;;;28.90;99.90;;;;;;5012762;28;20460;-75
2023/08/05 10:24:56;;;;;;;7.07;2.10;;;28.60;99.90;;;;;;5011988;28;20428;-75
2023/08/05 10:27:39;;;;;;;7.10;2.38;;;28.90;99.90;;;;;;5010991;28;20956;-75
2023/08/05 10:30:08;;;;;;;6.10;1.90;;;28.90;99.90;;;;;;5009280;28;20850;-74
2023/08/05 10:32:35;;;;;;;6.30;1.92;;;30.30;99.90;;;;;;5007934;28;20428;-75
2023/08/05 10:35:24;;;;;;;5.50;1.57;;;30.40;99.90;;;;;;4992245;28;20451;-75
2023/08/05 10:37:50;;;;;;;6.35;1.58;;;30.70;99.90;;;;;;5010279;28;21168;-74
2023/08/05 10:40:47;;;;;;;6.50;1.70;;;31.60;99.90;;;;;;4991668;28;20413;-74
2023/08/05 10:43:30;;;;;;;5.90;1.70;;;31.70;99.90;;;;;;4992096;28;20424;-75
2023/08/05 10:45:57;;;;;;;6.00;1.55;;;30.90;99.90;;;;;;4990203;28;20454;-75
2023/08/05 10:48:30;;;;;;;5.90;1.70;;;30.30;99.90;;;;;;4992580;28;20485;-74
2023/08/05 10:50:57;;;;;;;6.05;1.60;;;28.90;99.90;;;;;;4992430;28;20383;-74
2023/08/05 10:53:22;;;;;;;5.95;1.77;;;28.10;99.90;;;;;;4993239;28;20442;-74
2023/08/05 10:55:58;;;;;;;6.63;2.13;;;27.60;99.90;;;;;;4973701;28;20398;-74
2023/08/05 10:58:34;;;;;;;5.77;1.83;;;27.30;99.90;;;;;;4993236;28;20382;-74
2023/08/05 11:01:02;;;;;;;5.63;1.77;;;26.80;99.90;;;;;;4995963;28;20430;-74
2023/08/05 11:03:40;;;;;;;5.95;1.90;;;26.50;99.90;;;;;;4997006;28;20398;-74
2023/08/05 11:06:05;;;;;;;6.70;2.10;;;26.50;99.90;;;;;;4978498;28;20934;-74
2023/08/05 11:08:33;;;;;;;5.90;1.90;;;26.30;99.90;;;;;;4995582;28;20482;-74
2023/08/05 11:11:07;;;;;;;5.65;1.75;;;26.50;99.90;;;;;;4996061;28;20378;-74
2023/08/05 11:13:35;;;;;;;6.63;1.70;;;26.50;99.90;;;;;;5003200;28;20416;-74
2023/08/05 11:16:08;;;;;;;6.82;2.40;;;26.30;99.90;;;;;;5016366;28;20412;-74
2023/08/05 11:18:34;;;;;;;6.20;1.95;;;25.30;99.90;;;;;;5015647;28;21056;-74
2023/08/05 11:21:02;;;;;;;7.07;1.80;;;25.50;99.90;;;;;;5016376;28;20881;-75
2023/08/05 11:23:28;;;;;;;5.90;1.60;;;25.90;99.90;;;;;;5016761;28;20479;-75
2023/08/05 11:25:54;;;;;;;5.75;2.00;;;26.80;99.90;;;;;;5014857;28;20766;-74
2023/08/05 11:28:20;;;;;;;6.50;1.65;;;26.90;99.90;;;;;;5014604;28;20905;-75
2023/08/05 11:30:46;;;;;;;5.63;1.80;;;26.70;99.90;;;;;;5015030;28;20893;-74
2023/08/05 11:33:12;;;;;;;6.50;1.73;;;26.40;99.90;;;;;;5017147;28;20397;-74
2023/08/05 11:35:45;;;;;;;5.72;1.80;;;25.90;99.90;;;;;;5013695;28;20405;-74
2023/08/05 11:38:14;;;;;;;7.07;2.05;;;25.90;99.90;;;;;;5014136;28;20395;-74
2023/08/05 11:40:45;;;;;;;5.80;1.90;;;26.00;99.90;;;;;;5014308;28;20392;-74
2023/08/05 11:43:20;;;;;;;5.63;1.58;;;26.40;99.90;;;;;;5014050;28;20785;-74
2023/08/05 11:45:47;;;;;;;6.00;1.80;;;26.60;99.90;;;;;;5013409;28;20447;-75
2023/08/05 11:48:17;;;;;;;5.60;1.65;;;26.40;99.90;;;;;;5013080;28;20389;-75
2023/08/05 11:50:43;;;;;;;5.88;1.80;;;26.20;99.90;;;;;;5013103;28;20392;-74
2023/08/05 11:53:09;;;;;;;5.70;1.60;;;26.30;99.90;;;;;;5014183;28;20401;-75
2023/08/05 11:55:39;;;;;;;6.20;1.93;;;26.40;99.90;;;;;;5012700;28;20498;-75
2023/08/05 11:58:06;;;;;;;6.90;1.98;;;26.90;99.90;;;;;;5012355;28;20401;-75
2023/08/05 12:00:32;;;;;;;5.78;1.80;;;27.20;99.90;;;;;;5011805;28;20404;-75
2023/08/05 12:02:57;;;;;;;5.90;1.48;;;27.20;99.90;;;;;;5012152;28;20401;-75
2023/08/05 12:05:23;;;;;;;5.80;1.60;;;27.00;99.90;;;;;;5016104;28;20389;-74
2023/08/05 12:07:50;;;;;;;5.70;1.50;;;27.00;99.90;;;;;;4994321;28;20451;-74
2023/08/05 12:10:18;;;;;;;5.97;1.40;;;26.70;99.90;;;;;;5015163;28;20381;-75
2023/08/05 12:12:48;;;;;;;5.70;1.90;;;26.40;99.90;;;;;;5031813;28;20405;-75
2023/08/05 12:15:14;;;;;;;6.60;1.30;;;26.30;99.90;;;;;;5025404;28;20495;-75
2023/08/05 12:17:47;;;;;;;6.10;1.75;;;26.70;99.90;;;;;;5017123;28;20385;-75
2023/08/05 12:20:17;;;;;;;6.47;1.60;;;26.70;99.90;;;;;;5020410;28;20703;-75
2023/08/05 12:22:43;;;;;;;5.45;1.80;;;27.00;99.90;;;;;;5029770;28;20399;-76
2023/08/05 12:25:09;;;;;;;6.28;2.10;;;27.00;99.90;;;;;;5024830;28;20412;-76
2023/08/05 12:27:34;;;;;;;5.83;1.60;;;26.80;99.90;;;;;;5025740;28;20404;-75
2023/08/05 12:30:00;;;;;;;6.68;1.70;;;26.50;99.90;;;;;;5025586;28;20453;-76
2023/08/05 12:32:26;;;;;;;5.40;1.63;;;26.30;99.90;;;;;;5020276;28;20468;-74
2023/08/05 12:34:51;;;;;;;5.88;1.50;;;26.00;99.90;;;;;;5019071;28;20569;-75
2023/08/05 12:37:17;;;;;;;6.20;1.50;;;26.50;99.90;;;;;;5018639;28;20458;-75
2023/08/05 12:39:42;;;;;;;6.00;1.80;;;26.80;99.90;;;;;;5017757;28;20425;-74
2023/08/05 12:42:09;;;;;;;6.40;1.75;;;26.80;99.90;;;;;;5017348;28;20427;-74
2023/08/05 12:44:35;;;;;;;5.82;1.80;;;26.80;99.90;;;;;;5016066;28;20408;-74
2023/08/05 12:47:00;;;;;;;6.30;1.50;;;26.50;99.90;;;;;;4996009;28;20397;-74